sensor_id;sensor_type;location;lat;lon;timestamp;P1;durP1;ratioP1;P2;durP2;ratioP2
20830;SDS011;10576;53.556;9.868;2023-02-28T00:00:03;6.40;;;3.58;;
20830;SDS011;10576;53.556;9.868;2023-02-28T00:02:45;6.75;;;3.55;;
20830;SDS011;10576;53.556;9.868;2023-02-28T00:05:12;6.10;;;3.80;;
20830;SDS011;10576;53.556;9.868;2023-02-28T00:07:40;6.25;;;3.33;;
20830;SDS011;10576;53.556;9.868;2023-02-28T00:10:07;7.22;;;3.60;;
20830;SDS011;10576;53.556;9.868;2023-02-28T00:12:35;5.78;;;3.30;;
20830;SDS011;10576;53.556;9.868;2023-02-28T00:15:01;6.13;;;3.38;;
20830;SDS011;10576;53.556;9.868;2023-02-28T00:17:30;5.88;;;3.72;;
20830;SDS011;10576;53.556;9.868;2023-02-28T00:19:56;6.75;;;3.53;;
20830;SDS011;10576;53.556;9.868;2023-02-28T00:22:22;7.82;;;3.60;;
20830;SDS011;10576;53.556;9.868;2023-02-28T00:24:47;6.90;;;3.63;;
20830;SDS011;10576;53.556;9.868;2023-02-28T00:27:13;4.55;;;3.28;;
20830;SDS011;10576;53.556;9.868;2023-02-28T00:29:39;5.43;;;3.53;;
20830;SDS011;10576;53.556;9.868;2023-02-28T00:32:05;5.82;;;3.40;;
20830;SDS011;10576;53.556;9.868;2023-02-28T00:34:31;5.57;;;3.50;;
20830;SDS011;10576;53.556;9.868;2023-02-28T00:37:03;5.15;;;3.10;;
20830;SDS011;10576;53.556;9.868;2023-02-28T00:39:33;5.20;;;3.35;;
20830;SDS011;10576;53.556;9.868;2023-02-28T00:42:00;5.60;;;3.35;;
20830;SDS011;10576;53.556;9.868;2023-02-28T00:44:27;6.07;;;3.22;;
20830;SDS011;10576;53.556;9.868;2023-02-28T00:46:53;5.28;;;3.20;;
20830;SDS011;10576;53.556;9.868;2023-02-28T00:49:19;4.67;;;3.27;;
20830;SDS011;10576;53.556;9.868;2023-02-28T00:51:46;5.82;;;3.70;;
20830;SDS011;10576;53.556;9.868;2023-02-28T00:54:12;5.20;;;3.22;;
20830;SDS011;10576;53.556;9.868;2023-02-28T00:56:37;6.30;;;3.25;;
20830;SDS011;10576;53.556;9.868;2023-02-28T00:59:04;5.45;;;3.30;;
20830;SDS011;10576;53.556;9.868;2023-02-28T01:01:30;5.90;;;3.42;;
20830;SDS011;10576;53.556;9.868;2023-02-28T01:03:57;5.33;;;3.20;;
20830;SDS011;10576;53.556;9.868;2023-02-28T01:06:22;5.35;;;3.15;;
20830;SDS011;10576;53.556;9.868;2023-02-28T01:08:48;4.60;;;3.00;;
20830;SDS011;10576;53.556;9.868;2023-02-28T01:11:15;5.05;;;3.17;;
20830;SDS011;10576;53.556;9.868;2023-02-28T01:13:42;7.28;;;3.20;;
20830;SDS011;10576;53.556;9.868;2023-02-28T01:16:09;4.38;;;3.00;;
20830;SDS011;10576;53.556;9.868;2023-02-28T01:18:35;5.03;;;3.08;;
20830;SDS011;10576;53.556;9.868;2023-02-28T01:21:06;5.63;;;3.00;;
20830;SDS011;10576;53.556;9.868;2023-02-28T01:23:32;7.38;;;3.00;;
20830;SDS011;10576;53.556;9.868;2023-02-28T01:26:03;8.30;;;3.22;;
20830;SDS011;10576;53.556;9.868;2023-02-28T01:28:30;4.17;;;3.10;;
20830;SDS011;10576;53.556;9.868;2023-02-28T01:30:56;5.03;;;2.83;;
20830;SDS011;10576;53.556;9.868;2023-02-28T01:33:22;5.33;;;3.30;;
20830;SDS011;10576;53.556;9.868;2023-02-28T01:35:47;4.73;;;2.93;;
20830;SDS011;10576;53.556;9.868;2023-02-28T01:38:13;4.90;;;3.20;;
20830;SDS011;10576;53.556;9.868;2023-02-28T01:40:39;5.85;;;2.90;;
20830;SDS011;10576;53.556;9.868;2023-02-28T01:43:07;5.03;;;2.80;;
20830;SDS011;10576;53.556;9.868;2023-02-28T01:45:47;8.07;;;3.35;;
20830;SDS011;10576;53.556;9.868;2023-02-28T01:48:12;4.43;;;2.90;;
20830;SDS011;10576;53.556;9.868;2023-02-28T01:50:39;5.95;;;2.92;;
20830;SDS011;10576;53.556;9.868;2023-02-28T01:53:10;4.43;;;2.90;;
20830;SDS011;10576;53.556;9.868;2023-02-28T01:55:37;5.05;;;2.95;;
20830;SDS011;10576;53.556;9.868;2023-02-28T01:58:04;5.57;;;3.08;;
20830;SDS011;10576;53.556;9.868;2023-02-28T02:00:33;4.40;;;2.83;;
20830;SDS011;10576;53.556;9.868;2023-02-28T02:03:01;5.10;;;2.75;;
20830;SDS011;10576;53.556;9.868;2023-02-28T02:05:30;3.90;;;2.70;;
20830;SDS011;10576;53.556;9.868;2023-02-28T02:07:57;5.20;;;3.30;;
20830;SDS011;10576;53.556;9.868;2023-02-28T02:10:29;5.05;;;2.83;;
20830;SDS011;10576;53.556;9.868;2023-02-28T02:16:08;4.00;;;2.90;;
20830;SDS011;10576;53.556;9.868;2023-02-28T02:46:35;5.33;;;3.30;;
20830;SDS011;10576;53.556;9.868;2023-02-28T02:49:07;5.40;;;3.13;;
20830;SDS011;10576;53.556;9.868;2023-02-28T02:51:35;6.53;;;3.42;;
20830;SDS011;10576;53.556;9.868;2023-02-28T02:57:09;4.43;;;3.20;;
20830;SDS011;10576;53.556;9.868;2023-02-28T02:59:37;4.80;;;3.30;;
20830;SDS011;10576;53.556;9.868;2023-02-28T03:02:06;6.57;;;3.78;;
20830;SDS011;10576;53.556;9.868;2023-02-28T03:04:36;6.20;;;3.40;;
20830;SDS011;10576;53.556;9.868;2023-02-28T03:07:07;4.35;;;3.40;;
20830;SDS011;10576;53.556;9.868;2023-02-28T03:09:33;5.00;;;3.38;;
20830;SDS011;10576;53.556;9.868;2023-02-28T03:12:00;4.45;;;3.55;;
20830;SDS011;10576;53.556;9.868;2023-02-28T03:20:27;5.75;;;3.42;;
20830;SDS011;10576;53.556;9.868;2023-02-28T03:23:10;6.40;;;3.50;;
20830;SDS011;10576;53.556;9.868;2023-02-28T03:25:44;6.33;;;3.80;;
20830;SDS011;10576;53.556;9.868;2023-02-28T03:28:18;5.72;;;3.50;;
20830;SDS011;10576;53.556;9.868;2023-02-28T03:30:52;5.60;;;3.55;;
20830;SDS011;10576;53.556;9.868;2023-02-28T03:33:24;6.57;;;3.70;;
20830;SDS011;10576;53.556;9.868;2023-02-28T03:35:59;6.25;;;4.00;;
20830;SDS011;10576;53.556;9.868;2023-02-28T03:41:15;5.72;;;4.10;;
20830;SDS011;10576;53.556;9.868;2023-02-28T03:43:45;5.82;;;3.65;;
20830;SDS011;10576;53.556;9.868;2023-02-28T03:46:13;4.80;;;3.57;;
20830;SDS011;10576;53.556;9.868;2023-02-28T03:48:43;6.30;;;3.85;;
20830;SDS011;10576;53.556;9.868;2023-02-28T03:51:15;7.70;;;4.15;;
20830;SDS011;10576;53.556;9.868;2023-02-28T03:53:44;6.28;;;4.07;;
20830;SDS011;10576;53.556;9.868;2023-02-28T03:56:16;4.53;;;3.60;;
20830;SDS011;10576;53.556;9.868;2023-02-28T04:01:21;7.13;;;4.03;;
20830;SDS011;10576;53.556;9.868;2023-02-28T04:03:51;6.10;;;4.00;;
20830;SDS011;10576;53.556;9.868;2023-02-28T04:06:19;8.77;;;4.20;;
20830;SDS011;10576;53.556;9.868;2023-02-28T04:08:46;6.78;;;4.38;;
20830;SDS011;10576;53.556;9.868;2023-02-28T04:11:16;7.15;;;3.88;;
20830;SDS011;10576;53.556;9.868;2023-02-28T04:13:43;6.63;;;3.88;;
20830;SDS011;10576;53.556;9.868;2023-02-28T04:16:09;6.97;;;4.10;;
20830;SDS011;10576;53.556;9.868;2023-02-28T04:18:40;7.38;;;3.90;;
20830;SDS011;10576;53.556;9.868;2023-02-28T04:21:08;6.60;;;4.10;;
20830;SDS011;10576;53.556;9.868;2023-02-28T04:23:35;5.20;;;3.80;;
20830;SDS011;10576;53.556;9.868;2023-02-28T04:26:01;6.53;;;3.95;;
20830;SDS011;10576;53.556;9.868;2023-02-28T04:28:27;7.72;;;4.13;;
20830;SDS011;10576;53.556;9.868;2023-02-28T04:30:56;7.80;;;4.05;;
20830;SDS011;10576;53.556;9.868;2023-02-28T04:33:23;7.18;;;4.10;;
20830;SDS011;10576;53.556;9.868;2023-02-28T04:36:02;5.47;;;4.15;;
20830;SDS011;10576;53.556;9.868;2023-02-28T04:38:31;7.38;;;4.38;;
20830;SDS011;10576;53.556;9.868;2023-02-28T04:40:58;6.90;;;4.40;;
20830;SDS011;10576;53.556;9.868;2023-02-28T04:43:25;7.75;;;4.40;;
20830;SDS011;10576;53.556;9.868;2023-02-28T04:45:54;7.75;;;4.72;;
20830;SDS011;10576;53.556;9.868;2023-02-28T04:48:21;8.10;;;4.68;;
20830;SDS011;10576;53.556;9.868;2023-02-28T04:50:52;7.20;;;4.83;;
20830;SDS011;10576;53.556;9.868;2023-02-28T04:53:18;7.53;;;4.93;;
20830;SDS011;10576;53.556;9.868;2023-02-28T04:55:44;9.82;;;5.00;;
20830;SDS011;10576;53.556;9.868;2023-02-28T04:58:11;6.80;;;5.18;;
20830;SDS011;10576;53.556;9.868;2023-02-28T05:00:37;9.02;;;4.88;;
20830;SDS011;10576;53.556;9.868;2023-02-28T05:03:03;7.82;;;4.78;;
20830;SDS011;10576;53.556;9.868;2023-02-28T05:05:29;9.20;;;4.70;;
20830;SDS011;10576;53.556;9.868;2023-02-28T05:07:55;7.30;;;4.87;;
20830;SDS011;10576;53.556;9.868;2023-02-28T05:10:21;7.40;;;4.32;;
20830;SDS011;10576;53.556;9.868;2023-02-28T05:12:47;8.52;;;4.75;;
20830;SDS011;10576;53.556;9.868;2023-02-28T05:15:14;6.45;;;4.55;;
20830;SDS011;10576;53.556;9.868;2023-02-28T05:17:41;7.90;;;4.47;;
20830;SDS011;10576;53.556;9.868;2023-02-28T05:20:07;8.17;;;5.10;;
20830;SDS011;10576;53.556;9.868;2023-02-28T05:22:35;7.93;;;5.00;;
20830;SDS011;10576;53.556;9.868;2023-02-28T05:25:02;6.57;;;4.63;;
20830;SDS011;10576;53.556;9.868;2023-02-28T05:27:29;9.98;;;5.13;;
20830;SDS011;10576;53.556;9.868;2023-02-28T05:29:55;6.65;;;4.18;;
20830;SDS011;10576;53.556;9.868;2023-02-28T05:32:21;8.43;;;4.88;;
20830;SDS011;10576;53.556;9.868;2023-02-28T05:34:47;6.53;;;5.00;;
20830;SDS011;10576;53.556;9.868;2023-02-28T05:37:13;8.80;;;5.00;;
20830;SDS011;10576;53.556;9.868;2023-02-28T05:39:40;10.07;;;5.10;;
20830;SDS011;10576;53.556;9.868;2023-02-28T05:42:06;7.77;;;4.83;;
20830;SDS011;10576;53.556;9.868;2023-02-28T05:44:32;7.43;;;5.00;;
20830;SDS011;10576;53.556;9.868;2023-02-28T05:46:58;7.50;;;5.28;;
20830;SDS011;10576;53.556;9.868;2023-02-28T05:49:25;8.45;;;5.40;;
20830;SDS011;10576;53.556;9.868;2023-02-28T05:51:51;12.80;;;5.40;;
20830;SDS011;10576;53.556;9.868;2023-02-28T05:54:17;7.68;;;4.97;;
20830;SDS011;10576;53.556;9.868;2023-02-28T05:56:43;7.53;;;4.85;;
20830;SDS011;10576;53.556;9.868;2023-02-28T05:59:10;10.18;;;5.47;;
20830;SDS011;10576;53.556;9.868;2023-02-28T06:01:39;12.15;;;5.15;;
20830;SDS011;10576;53.556;9.868;2023-02-28T06:04:07;8.32;;;5.13;;
20830;SDS011;10576;53.556;9.868;2023-02-28T06:06:33;10.30;;;5.13;;
20830;SDS011;10576;53.556;9.868;2023-02-28T06:08:59;9.00;;;5.10;;
20830;SDS011;10576;53.556;9.868;2023-02-28T06:11:26;8.27;;;5.40;;
20830;SDS011;10576;53.556;9.868;2023-02-28T06:13:58;7.93;;;5.35;;
20830;SDS011;10576;53.556;9.868;2023-02-28T06:16:26;7.55;;;5.20;;
20830;SDS011;10576;53.556;9.868;2023-02-28T06:18:52;8.15;;;5.00;;
20830;SDS011;10576;53.556;9.868;2023-02-28T06:21:21;8.02;;;5.03;;
20830;SDS011;10576;53.556;9.868;2023-02-28T06:23:47;8.52;;;4.78;;
20830;SDS011;10576;53.556;9.868;2023-02-28T06:26:13;8.30;;;5.03;;
20830;SDS011;10576;53.556;9.868;2023-02-28T06:28:39;8.05;;;5.03;;
20830;SDS011;10576;53.556;9.868;2023-02-28T06:31:08;7.07;;;4.88;;
20830;SDS011;10576;53.556;9.868;2023-02-28T06:33:37;7.47;;;5.20;;
20830;SDS011;10576;53.556;9.868;2023-02-28T06:36:04;9.10;;;5.15;;
20830;SDS011;10576;53.556;9.868;2023-02-28T06:38:31;8.52;;;5.03;;
20830;SDS011;10576;53.556;9.868;2023-02-28T06:40:57;8.93;;;5.30;;
20830;SDS011;10576;53.556;9.868;2023-02-28T06:43:24;7.68;;;4.70;;
20830;SDS011;10576;53.556;9.868;2023-02-28T06:45:56;7.97;;;5.20;;
20830;SDS011;10576;53.556;9.868;2023-02-28T06:48:22;8.07;;;4.93;;
20830;SDS011;10576;53.556;9.868;2023-02-28T06:50:48;8.77;;;5.40;;
20830;SDS011;10576;53.556;9.868;2023-02-28T06:53:14;9.50;;;5.40;;
20830;SDS011;10576;53.556;9.868;2023-02-28T06:55:40;8.48;;;4.95;;
20830;SDS011;10576;53.556;9.868;2023-02-28T06:58:06;10.98;;;5.10;;
20830;SDS011;10576;53.556;9.868;2023-02-28T07:00:59;9.10;;;5.00;;
20830;SDS011;10576;53.556;9.868;2023-02-28T07:03:25;8.80;;;5.10;;
20830;SDS011;10576;53.556;9.868;2023-02-28T07:05:51;9.95;;;5.45;;
20830;SDS011;10576;53.556;9.868;2023-02-28T07:08:16;8.73;;;5.20;;
20830;SDS011;10576;53.556;9.868;2023-02-28T07:10:43;7.85;;;5.03;;
20830;SDS011;10576;53.556;9.868;2023-02-28T07:13:09;9.55;;;5.75;;
20830;SDS011;10576;53.556;9.868;2023-02-28T07:15:38;11.02;;;5.68;;
20830;SDS011;10576;53.556;9.868;2023-02-28T07:18:04;9.50;;;5.47;;
20830;SDS011;10576;53.556;9.868;2023-02-28T07:20:30;9.30;;;5.55;;
20830;SDS011;10576;53.556;9.868;2023-02-28T07:22:55;10.33;;;5.60;;
20830;SDS011;10576;53.556;9.868;2023-02-28T07:25:22;7.57;;;5.43;;
20830;SDS011;10576;53.556;9.868;2023-02-28T07:27:49;7.30;;;5.50;;
20830;SDS011;10576;53.556;9.868;2023-02-28T07:30:15;11.02;;;6.07;;
20830;SDS011;10576;53.556;9.868;2023-02-28T07:32:41;15.85;;;6.95;;
20830;SDS011;10576;53.556;9.868;2023-02-28T07:35:07;9.68;;;5.60;;
20830;SDS011;10576;53.556;9.868;2023-02-28T07:37:33;9.48;;;5.47;;
20830;SDS011;10576;53.556;9.868;2023-02-28T07:40:02;7.17;;;4.80;;
20830;SDS011;10576;53.556;9.868;2023-02-28T07:42:29;7.93;;;4.72;;
20830;SDS011;10576;53.556;9.868;2023-02-28T07:44:55;9.75;;;5.05;;
20830;SDS011;10576;53.556;9.868;2023-02-28T07:47:21;8.73;;;4.88;;
20830;SDS011;10576;53.556;9.868;2023-02-28T07:49:47;7.65;;;4.18;;
20830;SDS011;10576;53.556;9.868;2023-02-28T07:52:13;7.43;;;3.85;;
20830;SDS011;10576;53.556;9.868;2023-02-28T07:54:38;6.83;;;4.00;;
20830;SDS011;10576;53.556;9.868;2023-02-28T07:57:04;8.32;;;3.92;;
20830;SDS011;10576;53.556;9.868;2023-02-28T07:59:30;8.67;;;3.70;;
20830;SDS011;10576;53.556;9.868;2023-02-28T08:01:57;7.57;;;3.90;;
20830;SDS011;10576;53.556;9.868;2023-02-28T08:04:23;7.28;;;3.40;;
20830;SDS011;10576;53.556;9.868;2023-02-28T08:06:49;9.10;;;3.47;;
20830;SDS011;10576;53.556;9.868;2023-02-28T08:09:17;7.65;;;3.90;;
20830;SDS011;10576;53.556;9.868;2023-02-28T08:11:43;6.82;;;3.67;;
20830;SDS011;10576;53.556;9.868;2023-02-28T08:14:09;6.25;;;3.72;;
20830;SDS011;10576;53.556;9.868;2023-02-28T08:16:35;5.70;;;3.60;;
20830;SDS011;10576;53.556;9.868;2023-02-28T08:19:00;6.22;;;3.38;;
20830;SDS011;10576;53.556;9.868;2023-02-28T08:21:26;5.67;;;3.30;;
20830;SDS011;10576;53.556;9.868;2023-02-28T08:23:52;6.03;;;3.50;;
20830;SDS011;10576;53.556;9.868;2023-02-28T08:26:18;4.47;;;3.10;;
20830;SDS011;10576;53.556;9.868;2023-02-28T08:28:45;4.63;;;2.70;;
20830;SDS011;10576;53.556;9.868;2023-02-28T08:31:12;4.88;;;2.90;;
20830;SDS011;10576;53.556;9.868;2023-02-28T08:33:39;5.07;;;3.17;;
20830;SDS011;10576;53.556;9.868;2023-02-28T08:36:06;5.97;;;3.47;;
20830;SDS011;10576;53.556;9.868;2023-02-28T08:38:33;5.65;;;3.33;;
20830;SDS011;10576;53.556;9.868;2023-02-28T08:41:03;4.88;;;3.13;;
20830;SDS011;10576;53.556;9.868;2023-02-28T08:43:32;3.15;;;2.65;;
20830;SDS011;10576;53.556;9.868;2023-02-28T08:45:58;5.13;;;2.70;;
20830;SDS011;10576;53.556;9.868;2023-02-28T08:48:28;3.47;;;2.50;;
20830;SDS011;10576;53.556;9.868;2023-02-28T08:50:59;4.47;;;2.50;;
20830;SDS011;10576;53.556;9.868;2023-02-28T08:53:27;2.97;;;2.67;;
20830;SDS011;10576;53.556;9.868;2023-02-28T08:55:57;4.93;;;2.60;;
20830;SDS011;10576;53.556;9.868;2023-02-28T08:58:27;3.55;;;2.13;;
20830;SDS011;10576;53.556;9.868;2023-02-28T09:00:53;3.85;;;2.63;;
20830;SDS011;10576;53.556;9.868;2023-02-28T09:03:20;3.20;;;2.33;;
20830;SDS011;10576;53.556;9.868;2023-02-28T09:05:56;4.35;;;2.60;;
20830;SDS011;10576;53.556;9.868;2023-02-28T09:08:24;3.30;;;3.00;;
20830;SDS011;10576;53.556;9.868;2023-02-28T09:10:51;7.70;;;3.10;;
20830;SDS011;10576;53.556;9.868;2023-02-28T09:13:17;3.83;;;2.55;;
20830;SDS011;10576;53.556;9.868;2023-02-28T09:15:43;4.13;;;3.00;;
20830;SDS011;10576;53.556;9.868;2023-02-28T09:18:10;4.43;;;2.60;;
20830;SDS011;10576;53.556;9.868;2023-02-28T09:20:39;3.78;;;2.95;;
20830;SDS011;10576;53.556;9.868;2023-02-28T09:23:07;4.60;;;2.80;;
20830;SDS011;10576;53.556;9.868;2023-02-28T09:25:34;4.85;;;3.00;;
20830;SDS011;10576;53.556;9.868;2023-02-28T09:28:00;3.78;;;2.83;;
20830;SDS011;10576;53.556;9.868;2023-02-28T09:30:26;3.10;;;2.80;;
20830;SDS011;10576;53.556;9.868;2023-02-28T09:32:52;3.07;;;2.30;;
20830;SDS011;10576;53.556;9.868;2023-02-28T09:35:19;4.93;;;2.50;;
20830;SDS011;10576;53.556;9.868;2023-02-28T09:37:46;2.20;;;1.65;;
20830;SDS011;10576;53.556;9.868;2023-02-28T09:40:12;2.65;;;1.80;;
20830;SDS011;10576;53.556;9.868;2023-02-28T09:42:42;2.25;;;1.75;;
20830;SDS011;10576;53.556;9.868;2023-02-28T09:45:13;2.55;;;1.88;;
20830;SDS011;10576;53.556;9.868;2023-02-28T09:47:44;3.70;;;1.70;;
20830;SDS011;10576;53.556;9.868;2023-02-28T09:50:32;2.88;;;1.92;;
20830;SDS011;10576;53.556;9.868;2023-02-28T09:53:05;1.70;;;1.45;;
20830;SDS011;10576;53.556;9.868;2023-02-28T09:55:52;4.75;;;1.58;;
20830;SDS011;10576;53.556;9.868;2023-02-28T09:58:23;1.83;;;1.40;;
20830;SDS011;10576;53.556;9.868;2023-02-28T10:01:09;2.47;;;1.23;;
20830;SDS011;10576;53.556;9.868;2023-02-28T10:03:50;2.58;;;1.52;;
20830;SDS011;10576;53.556;9.868;2023-02-28T10:06:22;2.03;;;1.38;;
20830;SDS011;10576;53.556;9.868;2023-02-28T10:11:38;1.05;;;0.95;;
20830;SDS011;10576;53.556;9.868;2023-02-28T10:16:34;1.23;;;1.00;;
20830;SDS011;10576;53.556;9.868;2023-02-28T10:24:42;2.22;;;1.40;;
20830;SDS011;10576;53.556;9.868;2023-02-28T10:27:21;1.43;;;1.00;;
20830;SDS011;10576;53.556;9.868;2023-02-28T10:29:52;1.85;;;1.17;;
20830;SDS011;10576;53.556;9.868;2023-02-28T10:32:21;1.90;;;0.90;;
20830;SDS011;10576;53.556;9.868;2023-02-28T10:34:59;1.35;;;0.85;;
20830;SDS011;10576;53.556;9.868;2023-02-28T10:37:26;1.25;;;0.85;;
20830;SDS011;10576;53.556;9.868;2023-02-28T10:39:52;1.33;;;1.20;;
20830;SDS011;10576;53.556;9.868;2023-02-28T10:42:19;1.20;;;1.00;;
20830;SDS011;10576;53.556;9.868;2023-02-28T10:45:06;1.67;;;1.10;;
20830;SDS011;10576;53.556;9.868;2023-02-28T10:47:40;1.90;;;1.10;;
20830;SDS011;10576;53.556;9.868;2023-02-28T10:55:33;2.38;;;1.80;;
20830;SDS011;10576;53.556;9.868;2023-02-28T10:57:58;2.05;;;1.85;;
20830;SDS011;10576;53.556;9.868;2023-02-28T11:00:25;2.15;;;1.80;;
20830;SDS011;10576;53.556;9.868;2023-02-28T11:02:56;2.13;;;1.60;;
20830;SDS011;10576;53.556;9.868;2023-02-28T11:05:30;2.58;;;1.90;;
20830;SDS011;10576;53.556;9.868;2023-02-28T11:08:19;3.43;;;1.60;;
20830;SDS011;10576;53.556;9.868;2023-02-28T11:10:47;2.20;;;1.60;;
20830;SDS011;10576;53.556;9.868;2023-02-28T11:13:24;2.00;;;1.40;;
20830;SDS011;10576;53.556;9.868;2023-02-28T11:15:59;1.90;;;1.58;;
20830;SDS011;10576;53.556;9.868;2023-02-28T11:18:29;1.90;;;1.55;;
20830;SDS011;10576;53.556;9.868;2023-02-28T11:20:58;2.13;;;1.70;;
20830;SDS011;10576;53.556;9.868;2023-02-28T11:23:26;2.40;;;1.60;;
20830;SDS011;10576;53.556;9.868;2023-02-28T11:25:54;3.35;;;1.90;;
20830;SDS011;10576;53.556;9.868;2023-02-28T11:33:30;3.10;;;1.85;;
20830;SDS011;10576;53.556;9.868;2023-02-28T11:38:50;2.13;;;1.60;;
20830;SDS011;10576;53.556;9.868;2023-02-28T11:46:39;2.60;;;1.70;;
20830;SDS011;10576;53.556;9.868;2023-02-28T11:56:47;2.38;;;1.70;;
20830;SDS011;10576;53.556;9.868;2023-02-28T11:59:32;3.00;;;1.60;;
20830;SDS011;10576;53.556;9.868;2023-02-28T12:07:29;3.88;;;1.70;;
20830;SDS011;10576;53.556;9.868;2023-02-28T12:22:59;2.47;;;1.95;;
20830;SDS011;10576;53.556;9.868;2023-02-28T12:28:07;2.85;;;1.67;;
20830;SDS011;10576;53.556;9.868;2023-02-28T12:30:38;1.63;;;1.50;;
20830;SDS011;10576;53.556;9.868;2023-02-28T12:33:12;4.90;;;1.95;;
20830;SDS011;10576;53.556;9.868;2023-02-28T12:38:21;2.45;;;1.70;;
20830;SDS011;10576;53.556;9.868;2023-02-28T12:40:53;2.22;;;1.70;;
20830;SDS011;10576;53.556;9.868;2023-02-28T12:43:20;2.47;;;1.80;;
20830;SDS011;10576;53.556;9.868;2023-02-28T12:45:50;3.10;;;1.80;;
20830;SDS011;10576;53.556;9.868;2023-02-28T12:51:09;3.50;;;2.00;;
20830;SDS011;10576;53.556;9.868;2023-02-28T12:53:49;4.25;;;2.40;;
20830;SDS011;10576;53.556;9.868;2023-02-28T13:09:58;2.83;;;2.13;;
20830;SDS011;10576;53.556;9.868;2023-02-28T13:12:27;4.47;;;2.33;;
20830;SDS011;10576;53.556;9.868;2023-02-28T13:15:16;5.13;;;2.55;;
20830;SDS011;10576;53.556;9.868;2023-02-28T13:17:44;4.28;;;2.30;;
20830;SDS011;10576;53.556;9.868;2023-02-28T13:20:15;6.70;;;2.67;;
20830;SDS011;10576;53.556;9.868;2023-02-28T13:22:51;4.32;;;2.30;;
20830;SDS011;10576;53.556;9.868;2023-02-28T13:28:00;4.88;;;2.50;;
20830;SDS011;10576;53.556;9.868;2023-02-28T13:33:24;4.25;;;2.22;;
20830;SDS011;10576;53.556;9.868;2023-02-28T13:46:25;5.18;;;2.42;;
20830;SDS011;10576;53.556;9.868;2023-02-28T13:48:50;2.75;;;2.10;;
20830;SDS011;10576;53.556;9.868;2023-02-28T13:54:05;5.80;;;2.30;;
20830;SDS011;10576;53.556;9.868;2023-02-28T13:56:35;4.60;;;2.20;;
20830;SDS011;10576;53.556;9.868;2023-02-28T13:59:30;6.53;;;2.60;;
20830;SDS011;10576;53.556;9.868;2023-02-28T14:05:13;4.25;;;2.28;;
20830;SDS011;10576;53.556;9.868;2023-02-28T14:07:47;5.20;;;2.63;;
20830;SDS011;10576;53.556;9.868;2023-02-28T14:10:23;3.10;;;2.40;;
20830;SDS011;10576;53.556;9.868;2023-02-28T14:15:40;4.78;;;2.25;;
20830;SDS011;10576;53.556;9.868;2023-02-28T14:18:16;4.35;;;2.72;;
20830;SDS011;10576;53.556;9.868;2023-02-28T14:20:47;5.60;;;2.75;;
20830;SDS011;10576;53.556;9.868;2023-02-28T14:32:06;3.30;;;2.60;;
20830;SDS011;10576;53.556;9.868;2023-02-28T14:37:19;4.95;;;2.60;;
20830;SDS011;10576;53.556;9.868;2023-02-28T14:39:51;4.93;;;2.60;;
20830;SDS011;10576;53.556;9.868;2023-02-28T14:42:28;3.67;;;2.72;;
20830;SDS011;10576;53.556;9.868;2023-02-28T14:44:54;3.25;;;2.50;;
20830;SDS011;10576;53.556;9.868;2023-02-28T14:47:33;5.38;;;2.63;;
20830;SDS011;10576;53.556;9.868;2023-02-28T14:50:01;4.18;;;2.53;;
20830;SDS011;10576;53.556;9.868;2023-02-28T14:52:29;5.47;;;2.63;;
20830;SDS011;10576;53.556;9.868;2023-02-28T14:54:58;9.73;;;2.90;;
20830;SDS011;10576;53.556;9.868;2023-02-28T14:57:28;2.83;;;2.30;;
20830;SDS011;10576;53.556;9.868;2023-02-28T14:59:57;9.05;;;2.67;;
20830;SDS011;10576;53.556;9.868;2023-02-28T15:02:24;8.07;;;2.70;;
20830;SDS011;10576;53.556;9.868;2023-02-28T15:04:58;4.10;;;2.80;;
20830;SDS011;10576;53.556;9.868;2023-02-28T15:07:25;4.30;;;2.67;;
20830;SDS011;10576;53.556;9.868;2023-02-28T15:12:47;7.15;;;2.65;;
20830;SDS011;10576;53.556;9.868;2023-02-28T15:15:15;4.05;;;2.70;;
20830;SDS011;10576;53.556;9.868;2023-02-28T15:17:42;3.80;;;2.47;;
20830;SDS011;10576;53.556;9.868;2023-02-28T15:20:12;5.25;;;2.60;;
20830;SDS011;10576;53.556;9.868;2023-02-28T15:22:38;4.57;;;2.60;;
20830;SDS011;10576;53.556;9.868;2023-02-28T15:25:05;5.13;;;2.60;;
20830;SDS011;10576;53.556;9.868;2023-02-28T15:27:33;5.15;;;2.75;;
20830;SDS011;10576;53.556;9.868;2023-02-28T15:30:04;4.00;;;2.30;;
20830;SDS011;10576;53.556;9.868;2023-02-28T15:32:33;6.13;;;2.70;;
20830;SDS011;10576;53.556;9.868;2023-02-28T15:35:17;6.20;;;2.67;;
20830;SDS011;10576;53.556;9.868;2023-02-28T15:37:56;5.70;;;2.60;;
20830;SDS011;10576;53.556;9.868;2023-02-28T15:40:35;5.15;;;2.35;;
20830;SDS011;10576;53.556;9.868;2023-02-28T15:43:18;7.03;;;2.60;;
20830;SDS011;10576;53.556;9.868;2023-02-28T15:45:49;2.92;;;2.40;;
20830;SDS011;10576;53.556;9.868;2023-02-28T15:48:17;6.00;;;2.50;;
20830;SDS011;10576;53.556;9.868;2023-02-28T15:50:44;6.15;;;2.70;;
20830;SDS011;10576;53.556;9.868;2023-02-28T15:53:17;5.70;;;2.67;;
20830;SDS011;10576;53.556;9.868;2023-02-28T15:55:45;4.70;;;2.40;;
20830;SDS011;10576;53.556;9.868;2023-02-28T15:58:18;4.55;;;2.47;;
20830;SDS011;10576;53.556;9.868;2023-02-28T16:00:44;4.38;;;2.45;;
20830;SDS011;10576;53.556;9.868;2023-02-28T16:03:32;4.55;;;2.17;;
20830;SDS011;10576;53.556;9.868;2023-02-28T16:08:47;4.20;;;2.40;;
20830;SDS011;10576;53.556;9.868;2023-02-28T16:11:14;4.20;;;2.30;;
20830;SDS011;10576;53.556;9.868;2023-02-28T16:13:40;4.35;;;2.60;;
20830;SDS011;10576;53.556;9.868;2023-02-28T16:16:06;5.53;;;2.28;;
20830;SDS011;10576;53.556;9.868;2023-02-28T16:18:32;2.80;;;2.35;;
20830;SDS011;10576;53.556;9.868;2023-02-28T16:20:58;3.13;;;2.03;;
20830;SDS011;10576;53.556;9.868;2023-02-28T16:23:23;5.20;;;2.47;;
20830;SDS011;10576;53.556;9.868;2023-02-28T16:25:49;4.57;;;2.47;;
20830;SDS011;10576;53.556;9.868;2023-02-28T16:28:19;3.60;;;2.40;;
20830;SDS011;10576;53.556;9.868;2023-02-28T16:30:46;4.07;;;2.28;;
20830;SDS011;10576;53.556;9.868;2023-02-28T16:33:12;9.23;;;2.38;;
20830;SDS011;10576;53.556;9.868;2023-02-28T16:35:38;5.63;;;2.38;;
20830;SDS011;10576;53.556;9.868;2023-02-28T16:38:04;5.43;;;2.23;;
20830;SDS011;10576;53.556;9.868;2023-02-28T16:40:29;3.15;;;2.22;;
20830;SDS011;10576;53.556;9.868;2023-02-28T16:43:00;4.80;;;2.53;;
20830;SDS011;10576;53.556;9.868;2023-02-28T16:45:30;5.07;;;2.20;;
20830;SDS011;10576;53.556;9.868;2023-02-28T16:47:56;3.60;;;2.10;;
20830;SDS011;10576;53.556;9.868;2023-02-28T16:50:29;2.78;;;2.28;;
20830;SDS011;10576;53.556;9.868;2023-02-28T16:52:57;4.82;;;2.20;;
20830;SDS011;10576;53.556;9.868;2023-02-28T16:55:23;3.33;;;1.90;;
20830;SDS011;10576;53.556;9.868;2023-02-28T16:57:53;4.07;;;2.00;;
20830;SDS011;10576;53.556;9.868;2023-02-28T17:00:24;2.67;;;1.90;;
20830;SDS011;10576;53.556;9.868;2023-02-28T17:02:52;4.03;;;2.17;;
20830;SDS011;10576;53.556;9.868;2023-02-28T17:05:18;5.05;;;2.00;;
20830;SDS011;10576;53.556;9.868;2023-02-28T17:07:44;5.73;;;2.27;;
20830;SDS011;10576;53.556;9.868;2023-02-28T17:12:36;4.13;;;2.20;;
20830;SDS011;10576;53.556;9.868;2023-02-28T17:15:02;5.30;;;2.35;;
20830;SDS011;10576;53.556;9.868;2023-02-28T17:17:28;4.68;;;2.53;;
20830;SDS011;10576;53.556;9.868;2023-02-28T17:19:55;6.18;;;2.40;;
20830;SDS011;10576;53.556;9.868;2023-02-28T17:22:21;4.68;;;2.30;;
20830;SDS011;10576;53.556;9.868;2023-02-28T17:24:47;3.90;;;2.40;;
20830;SDS011;10576;53.556;9.868;2023-02-28T17:27:13;5.53;;;2.45;;
20830;SDS011;10576;53.556;9.868;2023-02-28T17:29:39;6.27;;;2.57;;
20830;SDS011;10576;53.556;9.868;2023-02-28T17:32:06;5.05;;;2.50;;
20830;SDS011;10576;53.556;9.868;2023-02-28T17:34:32;5.30;;;3.00;;
20830;SDS011;10576;53.556;9.868;2023-02-28T17:36:58;3.80;;;2.80;;
20830;SDS011;10576;53.556;9.868;2023-02-28T17:39:23;5.80;;;2.60;;
20830;SDS011;10576;53.556;9.868;2023-02-28T17:41:52;6.35;;;2.75;;
20830;SDS011;10576;53.556;9.868;2023-02-28T17:44:19;6.43;;;2.70;;